Time;durP1;ratioP1;P1;durP2;ratioP2;P2;SDS_P1;SDS_P2;PMS_P1;PMS_P2;Temp;Humidity;BMP_temperature;BMP_pressure;BME280_temperature;BME280_humidity;BME280_pressure;Samples;Min_cycle;Max_cycle;Signal;HPM_P1;HPM_P2
2023/09/15 00:00:11;;;;;;;;;1.00;1.00;;;;;24.40;50.86;101685.14;110175;1250;22859;-39
2023/09/15 00:02:58;;;;;;;;;1.00;1.00;;;;;24.38;50.64;101682.94;110231;1264;22768;-39
2023/09/15 00:05:24;;;;;;;;;1.00;1.00;;;;;24.38;50.65;101686.39;110260;1250;20822;-39
2023/09/15 00:07:50;;;;;;;;;2.00;2.00;;;;;24.35;50.69;101685.73;110279;1257;18159;-38
2023/09/15 00:10:16;;;;;;;;;2.00;1.50;;;;;24.35;50.97;101685.62;110237;1264;18368;-38
2023/09/15 00:12:44;;;;;;;;;1.00;1.00;;;;;24.37;50.78;101687.86;110227;1251;22225;-38
2023/09/15 00:15:10;;;;;;;;;1.00;1.00;;;;;24.40;50.58;101685.95;110289;1264;22797;-38
2023/09/15 00:17:36;;;;;;;;;1.00;1.00;;;;;24.40;50.74;101692.14;110236;1251;19915;-38
2023/09/15 00:20:07;;;;;;;;;1.00;1.00;;;;;24.41;50.70;101694.88;110241;1264;19167;-38
2023/09/15 00:22:33;;;;;;;;;1.00;1.00;;;;;24.38;50.50;101697.89;110340;1250;19748;-38
2023/09/15 00:25:01;;;;;;;;;1.00;1.00;;;;;24.39;50.75;101701.84;110231;1250;22341;-38
2023/09/15 00:27:27;;;;;;;;;1.00;1.00;;;;;24.41;50.72;101706.11;110062;1251;20757;-38
2023/09/15 00:29:53;;;;;;;;;1.00;1.00;;;;;24.39;50.49;101702.70;110243;1251;19427;-38
2023/09/15 00:32:19;;;;;;;;;1.00;1.00;;;;;24.41;50.60;101703.15;110280;1252;19776;-38
2023/09/15 00:34:45;;;;;;;;;1.00;1.00;;;;;24.39;50.71;101702.39;110226;1251;20461;-38
2023/09/15 00:37:11;;;;;;;;;1.00;1.00;;;;;24.37;50.85;101704.63;110235;1253;19411;-38
2023/09/15 00:39:37;;;;;;;;;1.00;1.00;;;;;24.38;50.71;101702.05;110225;1251;19651;-38
2023/09/15 00:42:03;;;;;;;;;1.00;1.00;;;;;24.40;50.62;101702.23;110228;1264;22158;-38
2023/09/15 00:44:29;;;;;;;;;1.00;1.00;;;;;24.38;50.42;101702.33;110227;1264;20030;-38
2023/09/15 00:46:55;;;;;;;;;1.00;1.00;;;;;24.38;50.64;101703.54;110241;1264;18496;-38
2023/09/15 00:49:21;;;;;;;;;1.00;1.00;;;;;24.40;50.67;101703.27;110266;1264;19211;-37
2023/09/15 00:51:48;;;;;;;;;1.00;1.00;;;;;24.40;50.63;101707.98;110260;1257;19296;-38
2023/09/15 00:54:14;;;;;;;;;1.00;1.00;;;;;24.38;50.53;101711.48;110206;1251;20042;-38
2023/09/15 00:56:40;;;;;;;;;1.00;1.00;;;;;24.38;50.50;101707.36;110245;1251;20884;-37
2023/09/15 00:59:06;;;;;;;;;1.00;1.00;;;;;24.40;50.41;101710.65;110271;1251;19405;-38
2023/09/15 01:01:32;;;;;;;;;2.00;2.00;;;;;24.39;50.50;101713.39;110279;1264;22564;-39
2023/09/15 01:03:58;;;;;;;;;1.00;1.00;;;;;24.40;50.60;101710.22;110249;1264;22289;-39
2023/09/15 01:06:24;;;;;;;;;1.00;1.00;;;;;24.40;50.44;101708.35;110296;1264;18067;-39
2023/09/15 01:08:50;;;;;;;;;1.00;1.00;;;;;24.40;50.59;101712.91;110269;1264;19535;-39
2023/09/15 01:11:16;;;;;;;;;1.00;1.00;;;;;24.40;50.47;101715.52;110228;1248;20387;-38
2023/09/15 01:13:42;;;;;;;;;1.00;1.00;;;;;24.41;50.43;101718.50;110295;1264;22903;-38
2023/09/15 01:16:08;;;;;;;;;1.00;1.00;;;;;24.41;50.42;101719.38;110262;1251;20253;-38
2023/09/15 01:18:34;;;;;;;;;2.00;2.00;;;;;24.41;50.54;101723.86;110222;1264;20423;-38
2023/09/15 01:20:59;;;;;;;;;1.00;1.00;;;;;24.42;50.40;101722.88;110222;1257;18333;-38
2023/09/15 01:23:26;;;;;;;;;1.00;1.00;;;;;24.39;50.57;101725.23;110319;1264;18345;-38
2023/09/15 01:25:52;;;;;;;;;1.33;1.00;;;;;24.41;50.40;101729.61;110342;1264;19380;-38
2023/09/15 01:28:19;;;;;;;;;1.00;1.00;;;;;24.42;50.56;101730.92;110232;1264;18446;-38
2023/09/15 01:30:46;;;;;;;;;1.00;1.00;;;;;24.43;50.36;101732.30;110265;1264;21577;-39
2023/09/15 01:33:13;;;;;;;;;1.00;1.00;;;;;24.42;50.44;101731.41;110190;1264;22193;-39
2023/09/15 01:35:39;;;;;;;;;1.00;1.00;;;;;24.41;50.61;101735.25;110217;1251;19658;-39
2023/09/15 01:38:05;;;;;;;;;1.00;1.00;;;;;24.43;50.30;101735.64;110218;1250;20790;-39
2023/09/15 01:40:32;;;;;;;;;1.00;1.00;;;;;24.43;50.24;101732.95;110250;1260;20704;-39
2023/09/15 01:42:58;;;;;;;;;1.00;1.00;;;;;24.40;50.52;101732.41;110320;1251;23447;-39
2023/09/15 01:45:24;;;;;;;;;1.00;1.00;;;;;24.41;50.43;101729.94;110289;1264;22876;-37
2023/09/15 01:47:50;;;;;;;;;1.00;1.00;;;;;24.42;50.36;101728.19;110209;1264;22132;-36
2023/09/15 01:50:16;;;;;;;;;1.00;1.00;;;;;24.43;50.41;101726.33;110240;1251;23045;-39
2023/09/15 01:52:41;;;;;;;;;1.00;1.00;;;;;24.45;50.36;101728.79;110336;1257;19872;-37
2023/09/15 01:55:07;;;;;;;;;1.00;1.00;;;;;24.41;50.44;101727.70;110302;1248;21780;-39
2023/09/15 01:57:33;;;;;;;;;1.00;1.00;;;;;24.43;50.23;101730.38;110224;1251;19554;-38
2023/09/15 01:59:59;;;;;;;;;1.00;1.00;;;;;24.43;50.35;101725.83;110246;1264;19710;-38
2023/09/15 02:02:25;;;;;;;;;1.00;1.00;;;;;24.41;50.30;101728.67;110260;1250;20647;-38
2023/09/15 02:04:51;;;;;;;;;1.00;1.00;;;;;24.42;50.30;101730.65;110284;1264;18233;-39
2023/09/15 02:07:17;;;;;;;;;1.00;1.00;;;;;24.41;50.39;101729.61;110299;1264;22459;-39
2023/09/15 02:09:43;;;;;;;;;1.00;1.00;;;;;24.43;50.29;101728.90;110255;1264;19853;-38
2023/09/15 02:12:09;;;;;;;;;1.00;1.00;;;;;24.45;50.12;101729.83;110259;1264;22894;-38
2023/09/15 02:14:35;;;;;;;;;1.00;1.00;;;;;24.45;50.30;101733.19;110276;1264;18351;-39
2023/09/15 02:17:01;;;;;;;;;1.00;1.00;;;;;24.43;50.23;101733.23;110264;1248;23487;-39
2023/09/15 02:19:27;;;;;;;;;1.00;1.00;;;;;24.45;50.24;101736.80;110310;1264;18125;-39
2023/09/15 02:21:53;;;;;;;;;1.00;1.00;;;;;24.43;50.34;101736.19;110222;1264;23219;-38
2023/09/15 02:24:19;;;;;;;;;1.00;1.00;;;;;24.44;50.32;101736.24;110237;1249;21735;-38
2023/09/15 02:26:45;;;;;;;;;1.00;1.00;;;;;24.42;50.29;101739.96;110192;1259;18639;-38
2023/09/15 02:29:13;;;;;;;;;1.00;1.00;;;;;24.43;50.24;101743.53;110261;1251;22319;-38
2023/09/15 02:31:40;;;;;;;;;1.00;1.00;;;;;24.44;50.15;101740.23;110242;1251;20982;-38
2023/09/15 02:34:06;;;;;;;;;1.00;1.00;;;;;24.45;50.09;101737.78;110255;1264;19489;-38
2023/09/15 02:36:32;;;;;;;;;1.00;1.00;;;;;24.43;50.08;101740.45;110264;1263;18341;-38
2023/09/15 02:38:57;;;;;;;;;1.00;1.00;;;;;24.45;49.98;101742.65;110265;1264;19207;-38
2023/09/15 02:41:23;;;;;;;;;1.00;1.00;;;;;24.42;50.31;101747.64;110255;1251;20223;-38
2023/09/15 02:43:49;;;;;;;;;1.00;1.00;;;;;24.40;50.27;101749.21;110249;1264;18434;-39
2023/09/15 02:46:15;;;;;;;;;1.00;1.00;;;;;24.43;50.21;101754.70;110240;1251;20545;-38
2023/09/15 02:48:41;;;;;;;;;1.00;1.00;;;;;24.42;50.27;101755.09;110258;1251;19441;-40
2023/09/15 02:51:07;;;;;;;;;1.00;1.00;;;;;24.40;50.26;101757.98;110226;1253;19782;-39
2023/09/15 02:53:33;;;;;;;;;1.00;1.00;;;;;24.41;50.13;101756.13;110241;1250;22204;-39
2023/09/15 02:55:59;;;;;;;;;1.00;1.00;;;;;24.40;50.37;101754.59;110306;1251;19503;-39
2023/09/15 02:58:25;;;;;;;;;1.00;1.00;;;;;24.41;50.17;101752.39;110242;1264;18632;-39
2023/09/15 03:00:51;;;;;;;;;1.00;1.00;;;;;24.43;49.95;101753.55;110245;1264;19174;-38
2023/09/15 03:03:17;;;;;;;;;1.00;1.00;;;;;24.42;49.99;101751.74;110277;1251;19440;-38
2023/09/15 03:05:43;;;;;;;;;1.00;1.00;;;;;24.42;50.11;101751.63;110242;1251;19720;-39
2023/09/15 03:08:10;;;;;;;;;1.00;1.00;;;;;24.41;50.12;101751.73;110263;1264;18995;-37
2023/09/15 03:10:36;;;;;;;;;1.00;1.00;;;;;24.42;49.98;101752.23;110240;1264;19763;-37
2023/09/15 03:13:04;;;;;;;;;1.00;1.00;;;;;24.42;50.13;101755.64;110267;1260;19601;-39
2023/09/15 03:15:30;;;;;;;;;1.00;1.00;;;;;24.44;50.05;101752.34;110265;1250;20943;-38
2023/09/15 03:17:56;;;;;;;;;1.00;1.00;;;;;24.43;50.01;101755.63;110242;1257;19597;-38
2023/09/15 03:20:22;;;;;;;;;1.00;1.00;;;;;24.43;50.13;101756.29;110192;1248;19842;-39
2023/09/15 03:22:48;;;;;;;;;1.00;1.00;;;;;24.41;50.23;101759.47;110186;1248;20802;-39
2023/09/15 03:25:14;;;;;;;;;1.50;1.00;;;;;24.44;49.94;101759.03;110250;1264;18425;-37
2023/09/15 03:27:40;;;;;;;;;1.00;1.00;;;;;24.44;49.82;101762.55;110320;1251;22667;-39
2023/09/15 03:30:06;;;;;;;;;;;;;;;24.43;49.96;101763.52;110235;1251;22312;-38
2023/09/15 03:32:32;;;;;;;;;1.00;1.00;;;;;24.42;49.92;101763.79;110257;1251;22773;-38
2023/09/15 03:34:58;;;;;;;;;1.00;1.00;;;;;24.42;49.95;101764.39;110256;1253;22949;-38
2023/09/15 03:37:24;;;;;;;;;1.00;1.00;;;;;24.44;49.99;101760.52;110168;1264;22754;-38
2023/09/15 03:39:50;;;;;;;;;1.50;1.00;;;;;24.49;49.83;101764.91;110251;1264;20113;-38
2023/09/15 03:42:16;;;;;;;;;1.00;1.00;;;;;24.47;49.95;101757.50;110245;1264;20238;-38
2023/09/15 03:44:42;;;;;;;;;1.00;1.00;;;;;24.49;49.71;101762.05;110241;1248;20437;-38
2023/09/15 03:47:08;;;;;;;;;1.00;1.00;;;;;24.48;49.87;101763.91;110259;1264;20909;-39
2023/09/15 03:49:34;;;;;;;;;2.00;2.00;;;;;24.49;49.68;101766.60;110247;1250;19967;-38
2023/09/15 03:52:00;;;;;;;;;1.00;1.00;;;;;24.49;49.86;101766.55;110247;1251;20427;-39
2023/09/15 03:54:26;;;;;;;;;1.00;1.00;;;;;24.49;49.71;101772.41;110268;1264;18119;-38
2023/09/15 03:56:53;;;;;;;;;2.00;2.00;;;;;24.49;49.78;101773.71;110227;1259;19677;-38
2023/09/15 03:59:20;;;;;;;;;1.00;1.00;;;;;24.49;49.85;101775.31;110215;1250;20777;-39
2023/09/15 04:01:47;;;;;;;;;1.00;1.00;;;;;24.47;49.63;101777.98;110202;1257;19537;-38
2023/09/15 04:04:13;;;;;;;;;1.00;1.00;;;;;24.49;49.72;101783.52;110208;1257;23477;-38
2023/09/15 04:06:39;;;;;;;;;2.00;2.00;;;;;24.50;49.65;101785.83;110208;1250;21489;-38
2023/09/15 04:09:09;;;;;;;;;1.50;1.50;;;;;24.49;49.57;101786.98;110196;1249;19461;-38
2023/09/15 04:11:35;;;;;;;;;1.00;1.00;;;;;24.48;49.97;101796.02;110323;1248;20042;-38
2023/09/15 04:14:03;;;;;;;;;1.00;1.00;;;;;24.44;49.82;101799.02;110207;1251;23119;-38
2023/09/15 04:16:29;;;;;;;;;1.00;1.00;;;;;24.45;49.84;101800.77;110222;1251;19686;-38
2023/09/15 04:18:55;;;;;;;;;1.00;1.00;;;;;24.46;49.81;101801.16;110195;1251;22325;-39
2023/09/15 04:21:20;;;;;;;;;1.00;1.00;;;;;24.45;49.79;101807.18;110228;1251;22690;-38
2023/09/15 04:23:46;;;;;;;;;1.00;1.00;;;;;24.42;49.79;101806.02;110141;1251;22881;-38
2023/09/15 04:26:12;;;;;;;;;1.50;1.00;;;;;24.45;49.67;101807.73;110220;1248;19822;-39
2023/09/15 04:28:38;;;;;;;;;1.00;1.00;;;;;24.42;49.92;101809.58;110228;1251;20649;-39
2023/09/15 04:31:04;;;;;;;;;1.00;1.00;;;;;24.48;49.97;101815.68;110221;1251;19441;-38
2023/09/15 04:33:30;;;;;;;;;2.00;2.00;;;;;24.49;49.56;101819.08;110214;1264;19712;-38
2023/09/15 04:35:56;;;;;;;;;4.00;4.00;;;;;24.45;48.93;101816.45;110205;1252;20432;-39
2023/09/15 04:38:22;;;;;;;;;5.50;5.00;;;;;24.41;47.62;101821.46;110237;1264;18534;-37
2023/09/15 04:40:48;;;;;;;;;5.50;5.50;;;;;24.35;46.32;101828.84;110253;1251;22860;-38
2023/09/15 04:43:16;;;;;;;;;6.00;6.00;;;;;24.28;45.71;101829.84;110224;1251;22095;-38
2023/09/15 04:45:43;;;;;;;;;9.00;8.50;;;;;24.20;45.38;101829.57;110244;1264;19551;-39
2023/09/15 04:48:09;;;;;;;;;9.00;9.00;;;;;24.18;45.12;101831.20;110212;1248;19757;-40
2023/09/15 04:50:36;;;;;;;;;12.00;12.00;;;;;24.12;43.93;101833.86;110229;1248;20534;-38
2023/09/15 04:53:02;;;;;;;;;23.00;20.00;;;;;24.03;43.80;101839.23;110185;1251;22799;-39
2023/09/15 04:55:28;;;;;;;;;17.00;14.00;;;;;23.97;43.55;101840.41;110219;1250;20338;-39
2023/09/15 04:57:54;;;;;;;;;12.50;12.50;;;;;24.12;44.33;101840.54;110239;1264;19097;-40
2023/09/15 05:00:23;;;;;;;;;14.00;13.50;;;;;24.20;44.59;101840.90;110237;1264;18373;-38
2023/09/15 05:02:49;;;;;;;;;9.00;9.00;;;;;24.19;43.91;101842.48;110245;1251;22563;-39
2023/09/15 05:05:15;;;;;;;;;10.00;9.00;;;;;24.20;43.59;101846.81;110248;1264;19127;-39
2023/09/15 05:07:41;;;;;;;;;9.00;9.00;;;;;24.24;42.94;101842.51;110197;1264;18332;-37
2023/09/15 05:10:08;;;;;;;;;10.00;8.00;;;;;24.22;42.28;101846.72;110221;1252;19967;-36
2023/09/15 05:12:34;;;;;;;;;62.50;47.50;;;;;24.22;42.00;101847.16;110231;1260;21027;-38
2023/09/15 05:15:00;;;;;;;;;246.00;181.00;;;;;24.25;41.73;101850.46;110207;1264;19985;-36
2023/09/15 05:17:26;;;;;;;;;444.00;308.50;;;;;24.30;41.98;101856.20;110221;1264;18556;-38
2023/09/15 05:19:53;;;;;;;;;322.00;225.00;;;;;24.34;41.83;101859.11;110213;1248;19358;-36
2023/09/15 05:22:19;;;;;;;;;163.50;128.00;;;;;24.37;41.89;101860.39;110177;1251;20514;-37
2023/09/15 05:24:45;;;;;;;;;139.00;99.00;;;;;24.39;41.85;101860.13;110268;1264;18925;-37
2023/09/15 05:27:11;;;;;;;;;109.00;76.00;;;;;24.39;41.42;101862.59;110207;1249;21843;-38
2023/09/15 05:29:37;;;;;;;;;78.50;57.00;;;;;24.43;41.67;101865.07;110150;1264;18802;-38
2023/09/15 05:32:03;;;;;;;;;51.00;37.00;;;;;24.20;40.91;101872.78;110200;1251;21879;-38
2023/09/15 05:34:29;;;;;;;;;23.50;20.00;;;;;23.87;40.43;101874.61;110254;1248;22171;-37
2023/09/15 05:36:55;;;;;;;;;21.00;18.00;;;;;23.85;40.14;101874.81;110220;1264;18339;-39
2023/09/15 05:39:21;;;;;;;;;13.00;13.00;;;;;23.82;39.90;101874.90;110205;1249;19942;-39
2023/09/15 05:41:47;;;;;;;;;13.00;13.00;;;;;23.81;39.71;101875.22;110213;1264;19216;-39
2023/09/15 05:44:12;;;;;;;;;13.00;12.00;;;;;23.74;39.78;101880.31;110190;1251;22680;-38
2023/09/15 05:46:38;;;;;;;;;8.50;8.50;;;;;23.64;39.49;101877.18;110203;1251;22414;-39
2023/09/15 05:49:05;;;;;;;;;8.00;8.00;;;;;23.56;39.57;101875.58;110221;1264;19368;-39
2023/09/15 05:51:31;;;;;;;;;9.00;8.67;;;;;23.57;39.62;101878.99;110187;1251;20800;-38
2023/09/15 05:53:57;;;;;;;;;9.00;9.00;;;;;23.54;39.53;101881.59;110221;1264;22321;-38
2023/09/15 05:56:23;;;;;;;;;8.00;8.00;;;;;23.51;39.74;101882.85;110222;1264;21060;-38
2023/09/15 05:58:49;;;;;;;;;8.00;8.00;;;;;23.48;39.69;101884.84;110167;1259;19616;-38
2023/09/15 06:01:15;;;;;;;;;9.00;9.00;;;;;23.44;39.73;101888.74;110241;1248;19688;-37
2023/09/15 06:03:42;;;;;;;;;6.00;6.00;;;;;23.44;40.16;101886.61;110241;1251;20651;-37
2023/09/15 06:06:08;;;;;;;;;9.00;8.00;;;;;23.46;40.15;101885.39;110295;1264;18862;-38
2023/09/15 06:08:34;;;;;;;;;8.00;6.00;;;;;23.46;40.20;101886.41;109937;1253;411269;-37
2023/09/15 06:11:00;;;;;;;;;8.50;8.50;;;;;23.48;40.17;101887.74;110231;1254;20538;-38
2023/09/15 06:13:26;;;;;;;;;8.00;8.00;;;;;23.45;40.22;101887.95;110215;1251;20929;-39
2023/09/15 06:15:52;;;;;;;;;13.00;11.00;;;;;23.48;40.23;101890.10;110227;1264;19840;-39
2023/09/15 06:18:18;;;;;;;;;10.00;9.00;;;;;23.44;40.19;101890.61;110242;1264;19048;-38
2023/09/15 06:20:44;;;;;;;;;11.50;9.00;;;;;23.45;40.43;101893.96;110214;1264;18528;-38
2023/09/15 06:23:10;;;;;;;;;9.00;9.00;;;;;23.48;40.55;101900.54;110230;1264;18416;-38
2023/09/15 06:25:36;;;;;;;;;9.00;8.00;;;;;23.46;40.60;101904.41;110225;1257;20595;-39
2023/09/15 06:28:02;;;;;;;;;;;;;;;23.40;40.78;101903.77;110208;1264;19693;-38
2023/09/15 06:30:29;;;;;;;;;12.00;9.00;;;;;23.41;40.81;101900.64;110218;1249;24267;-39
2023/09/15 06:32:55;;;;;;;;;8.00;8.00;;;;;23.43;41.02;101904.27;110195;1257;22815;-39
2023/09/15 06:35:21;;;;;;;;;9.00;8.00;;;;;23.41;41.00;101904.70;110176;1251;19770;-38
2023/09/15 06:37:47;;;;;;;;;8.00;8.00;;;;;23.40;41.23;101904.20;110220;1264;18528;-38
2023/09/15 06:40:13;;;;;;;;;9.00;8.00;;;;;23.44;41.21;101903.52;110216;1264;21100;-38
2023/09/15 06:42:39;;;;;;;;;11.00;9.00;;;;;23.49;41.39;101899.14;110235;1264;18226;-39
2023/09/15 06:45:05;;;;;;;;;9.00;8.00;;;;;23.41;41.64;101899.40;110225;1248;22098;-37
2023/09/15 06:47:31;;;;;;;;;12.00;12.00;;;;;23.42;41.43;101897.05;110145;1264;19076;-40
2023/09/15 06:49:57;;;;;;;;;15.50;13.00;;;;;23.49;41.48;101895.48;110243;1251;19478;-37
2023/09/15 06:52:23;;;;;;;;;11.00;8.00;;;;;23.51;41.33;101893.42;110188;1264;18604;-38
2023/09/15 06:54:49;;;;;;;;;8.00;8.00;;;;;23.58;40.81;101892.18;110197;1264;19232;-37
2023/09/15 06:57:15;;;;;;;;;11.00;9.00;;;;;23.64;40.35;101894.14;110238;1251;19833;-37
2023/09/15 06:59:41;;;;;;;;;9.00;9.00;;;;;23.69;39.80;101895.94;110218;1257;23194;-37
2023/09/15 07:02:07;;;;;;;;;6.00;6.00;;;;;23.72;39.67;101895.69;110276;1264;19128;-37
2023/09/15 07:04:33;;;;;;;;;11.00;9.00;;;;;23.70;39.55;101897.20;110314;1251;19528;-38
2023/09/15 07:06:59;;;;;;;;;9.00;8.00;;;;;23.75;38.94;101898.61;110303;1251;19978;-38
2023/09/15 07:09:25;;;;;;;;;9.00;6.00;;;;;23.77;38.70;101896.54;110295;1264;19119;-37
2023/09/15 07:11:51;;;;;;;;;6.00;6.00;;;;;23.80;38.67;101898.10;110304;1248;19485;-38
2023/09/15 07:14:17;;;;;;;;;5.00;5.00;;;;;23.79;38.71;101892.99;110295;1251;19718;-38
2023/09/15 07:16:43;;;;;;;;;4.00;4.00;;;;;23.80;38.15;101892.30;110275;1264;19344;-38
2023/09/15 07:19:09;;;;;;;;;5.00;5.00;;;;;23.81;38.19;101891.43;110308;1251;20010;-38
2023/09/15 07:21:37;;;;;;;;;4.00;4.00;;;;;23.85;38.20;101890.08;110285;1251;19978;-37
2023/09/15 07:24:04;;;;;;;;;6.00;5.00;;;;;23.79;37.46;101887.64;110220;1264;19401;-38
2023/09/15 07:26:30;;;;;;;;;4.00;4.00;;;;;23.77;37.35;101888.50;110177;1250;22001;-38
2023/09/15 07:28:56;;;;;;;;;5.00;4.00;;;;;23.83;37.45;101891.17;110240;1249;19767;-37
2023/09/15 07:31:22;;;;;;;;;4.00;4.00;;;;;23.91;37.09;101891.60;110202;1251;20448;-38
2023/09/15 07:33:47;;;;;;;;;6.00;4.00;;;;;23.91;37.29;101891.65;110224;1248;19368;-38
2023/09/15 07:36:13;;;;;;;;;4.00;2.00;;;;;23.93;37.20;101892.27;110227;1251;19739;-39
2023/09/15 07:38:40;;;;;;;;;4.50;4.50;;;;;23.94;37.58;101896.39;110245;1258;20325;-37
2023/09/15 07:41:06;;;;;;;;;3.00;3.00;;;;;23.93;37.35;101898.02;110260;1264;19554;-37
2023/09/15 07:43:32;;;;;;;;;3.00;2.00;;;;;23.88;36.72;101900.23;110222;1250;20253;-38
2023/09/15 07:45:58;;;;;;;;;2.00;2.00;;;;;23.78;36.39;101898.84;110112;1248;23780;-36
2023/09/15 07:48:25;;;;;;;;;2.00;2.00;;;;;23.78;36.35;101896.66;110263;1251;19638;-36
2023/09/15 07:50:51;;;;;;;;;2.00;2.00;;;;;23.79;36.50;101893.48;110163;1264;18403;-37
2023/09/15 07:53:17;;;;;;;;;4.00;4.00;;;;;23.89;36.34;101891.77;110167;1261;20507;-38
2023/09/15 07:55:42;;;;;;;;;4.00;4.00;;;;;23.76;36.51;101894.02;110172;1264;18284;-37
2023/09/15 07:58:08;;;;;;;;;4.00;4.00;;;;;23.65;36.71;101889.89;110203;1264;19717;-38
2023/09/15 08:00:34;;;;;;;;;2.00;2.00;;;;;23.77;36.77;101888.01;110211;1256;19058;-37
2023/09/15 08:03:00;;;;;;;;;2.00;2.00;;;;;23.72;36.69;101891.09;110268;1250;19393;-36
2023/09/15 08:05:27;;;;;;;;;4.00;4.00;;;;;23.75;36.58;101886.62;110248;1249;19996;-37
2023/09/15 08:07:53;;;;;;;;;4.00;4.00;;;;;23.79;36.45;101887.35;110230;1263;20676;-36
2023/09/15 08:10:20;;;;;;;;;2.00;2.00;;;;;23.84;36.63;101884.98;110267;1251;19416;-37
2023/09/15 08:12:48;;;;;;;;;4.00;4.00;;;;;23.93;36.55;101887.29;110222;1251;22682;-37
2023/09/15 08:15:16;;;;;;;;;2.00;2.00;;;;;23.91;36.41;101886.56;110298;1250;21941;-37
2023/09/15 08:17:42;;;;;;;;;4.00;2.00;;;;;23.80;36.75;101883.65;110301;1251;22794;-37
2023/09/15 08:20:08;;;;;;;;;2.00;2.00;;;;;23.79;36.78;101883.42;110232;1264;19816;-37
2023/09/15 08:22:37;;;;;;;;;2.00;2.00;;;;;23.82;36.58;101886.50;110261;1264;19407;-36
2023/09/15 08:25:03;;;;;;;;;2.00;2.00;;;;;23.74;36.57;101883.94;110291;1251;22748;-36
2023/09/15 08:27:29;;;;;;;;;5.00;4.00;;;;;23.80;36.73;101878.55;110260;1264;19735;-36
2023/09/15 08:29:55;;;;;;;;;3.00;2.00;;;;;23.63;36.94;101879.80;110263;1258;20540;-36
2023/09/15 08:32:21;;;;;;;;;2.00;2.00;;;;;23.68;36.68;101876.44;110209;1250;23151;-37
2023/09/15 08:34:47;;;;;;;;;2.00;2.00;;;;;23.53;36.65;101874.02;110245;1248;22433;-36
2023/09/15 08:37:13;;;;;;;;;2.00;2.00;;;;;23.37;36.79;101875.45;110229;1251;20533;-37
2023/09/15 08:39:39;;;;;;;;;2.00;2.00;;;;;22.81;36.98;101870.64;110248;1264;19926;-37
2023/09/15 08:42:05;;;;;;;;;2.00;2.00;;;;;22.47;37.26;101871.48;110237;1250;19789;-36
2023/09/15 08:44:31;;;;;;;;;2.00;2.00;;;;;22.90;36.69;101864.13;110249;1249;20559;-37
2023/09/15 08:46:57;;;;;;;;;2.00;2.00;;;;;23.15;36.42;101863.95;110221;1248;19302;-36
2023/09/15 08:49:23;;;;;;;;;2.00;2.00;;;;;23.20;36.36;101863.34;110202;1249;20074;-37
2023/09/15 08:51:49;;;;;;;;;2.00;2.00;;;;;23.29;36.21;101864.06;110229;1264;19145;-37
2023/09/15 08:54:15;;;;;;;;;4.00;4.00;;;;;23.33;36.35;101867.50;110211;1264;23205;-36
2023/09/15 08:56:41;;;;;;;;;2.00;2.00;;;;;23.23;35.82;101866.38;110227;1248;22735;-37
2023/09/15 08:59:07;;;;;;;;;2.00;2.00;;;;;23.33;35.95;101870.98;110267;1251;22911;-37
2023/09/15 09:01:33;;;;;;;;;5.00;2.00;;;;;23.09;36.00;101874.11;110277;1264;19452;-38
2023/09/15 09:03:59;;;;;;;;;2.00;2.00;;;;;22.98;36.19;101870.56;110249;1264;18625;-36
2023/09/15 09:06:25;;;;;;;;;3.00;2.00;;;;;23.19;36.00;101867.53;110280;1257;22792;-37
2023/09/15 09:08:51;;;;;;;;;4.00;4.00;;;;;23.37;35.89;101869.12;110192;1251;22357;-38
2023/09/15 09:11:17;;;;;;;;;2.00;2.00;;;;;23.36;35.83;101867.64;110227;1251;19907;-36
2023/09/15 09:13:43;;;;;;;;;5.50;4.00;;;;;23.30;35.88;101868.02;110230;1264;18962;-37
2023/09/15 09:16:10;;;;;;;;;4.00;4.00;;;;;23.32;35.77;101866.83;110134;1248;19623;-38
2023/09/15 09:18:36;;;;;;;;;2.00;2.00;;;;;22.92;35.99;101864.74;110255;1257;23388;-37
2023/09/15 09:21:02;;;;;;;;;4.00;4.00;;;;;22.72;35.86;101867.95;110217;1251;22955;-38
2023/09/15 09:23:28;;;;;;;;;2.00;2.00;;;;;22.97;35.37;101869.89;110212;1264;18563;-38
2023/09/15 09:25:54;;;;;;;;;2.00;2.00;;;;;22.97;35.47;101871.90;110197;1264;19850;-38
2023/09/15 09:28:21;;;;;;;;;2.00;2.00;;;;;22.75;35.47;101866.80;110197;1264;19185;-36
2023/09/15 09:30:47;;;;;;;;;4.67;4.00;;;;;22.71;35.06;101863.98;110250;1248;19709;-38
2023/09/15 09:33:13;;;;;;;;;2.00;2.00;;;;;22.26;36.19;101868.04;110286;1264;19047;-36
2023/09/15 09:35:40;;;;;;;;;2.00;2.00;;;;;22.33;36.19;101865.79;110280;1251;21988;-36
2023/09/15 09:38:05;;;;;;;;;2.00;2.00;;;;;22.59;35.75;101859.77;110271;1251;20604;-36
2023/09/15 09:40:32;;;;;;;;;2.00;2.00;;;;;22.72;35.44;101858.09;110333;1249;19786;-36
2023/09/15 09:42:58;;;;;;;;;3.00;3.00;;;;;22.69;35.43;101861.26;110257;1264;21135;-38
2023/09/15 09:45:24;;;;;;;;;3.00;3.00;;;;;22.79;35.67;101859.64;110252;1248;18548;-36
2023/09/15 09:47:50;;;;;;;;;4.00;2.00;;;;;22.51;35.81;101865.10;110281;1251;19878;-36
2023/09/15 09:50:16;;;;;;;;;4.00;4.00;;;;;22.57;35.56;101857.14;110228;1264;20699;-38
2023/09/15 09:52:42;;;;;;;;;2.00;2.00;;;;;22.87;35.08;101857.98;110226;1264;18374;-38
2023/09/15 09:55:08;;;;;;;;;4.00;4.00;;;;;22.83;35.34;101860.40;110207;1264;18501;-38
2023/09/15 09:57:33;;;;;;;;;4.00;4.00;;;;;22.78;34.99;101856.61;110230;1264;21828;-38
2023/09/15 10:00:03;;;;;;;;;4.00;2.00;;;;;22.69;34.94;101863.94;110220;1264;18101;-38
2023/09/15 10:02:29;;;;;;;;;3.00;3.00;;;;;22.09;35.68;101865.79;110173;1251;21337;-37
2023/09/15 10:04:55;;;;;;;;;2.00;2.00;;;;;22.46;35.26;101856.95;110199;1253;20610;-38
2023/09/15 10:07:21;;;;;;;;;2.00;2.00;;;;;22.72;35.12;101856.42;110226;1264;18810;-38
2023/09/15 10:09:47;;;;;;;;;4.00;4.00;;;;;22.69;35.69;101860.39;110216;1252;20069;-37
2023/09/15 10:12:13;;;;;;;;;2.00;2.00;;;;;22.59;35.95;101858.74;110229;1264;20512;-38
2023/09/15 10:14:39;;;;;;;;;2.00;2.00;;;;;22.78;35.56;101856.52;110226;1264;18160;-38
2023/09/15 10:17:05;;;;;;;;;4.50;4.00;;;;;22.81;34.92;101862.73;110214;1251;19867;-38
2023/09/15 10:19:31;;;;;;;;;2.00;2.00;;;;;22.95;34.92;101862.49;110235;1264;22739;-38
2023/09/15 10:21:57;;;;;;;;;5.00;4.00;;;;;22.93;34.66;101859.41;110227;1251;19415;-38
2023/09/15 10:24:23;;;;;;;;;3.00;3.00;;;;;22.60;35.60;101858.14;110177;1251;19821;-38
2023/09/15 10:26:49;;;;;;;;;2.00;2.00;;;;;22.54;36.30;101848.84;110233;1251;20398;-39
2023/09/15 10:29:15;;;;;;;;;4.00;4.00;;;;;22.84;36.18;101847.02;110218;1251;19402;-38
2023/09/15 10:31:41;;;;;;;;;4.00;2.00;;;;;22.96;36.19;101841.79;110226;1264;19771;-37
2023/09/15 10:34:07;;;;;;;;;4.00;4.00;;;;;22.85;36.57;101836.81;110184;1251;20852;-37
2023/09/15 10:36:33;;;;;;;;;4.00;4.00;;;;;22.81;35.99;101840.39;110197;1251;21736;-37
2023/09/15 10:38:59;;;;;;;;;4.00;4.00;;;;;22.59;36.07;101836.95;110192;1264;19762;-37
2023/09/15 10:41:25;;;;;;;;;4.00;4.00;;;;;22.43;35.84;101838.66;110165;1256;19752;-37
2023/09/15 10:43:51;;;;;;;;;2.00;2.00;;;;;22.55;35.74;101830.02;110198;1251;19459;-38
2023/09/15 10:46:17;;;;;;;;;4.00;4.00;;;;;22.72;35.44;101836.49;110235;1256;22296;-38
2023/09/15 10:48:44;;;;;;;;;4.00;4.00;;;;;22.59;35.70;101835.20;110237;1250;20771;-40
2023/09/15 10:51:10;;;;;;;;;4.00;4.00;;;;;22.50;35.97;101839.30;110212;1264;22514;-38
2023/09/15 10:53:36;;;;;;;;;4.00;4.00;;;;;22.48;35.03;101841.23;110227;1258;19879;-37
2023/09/15 10:56:02;;;;;;;;;3.00;2.00;;;;;22.28;34.90;101846.55;110222;1251;22727;-37
2023/09/15 10:58:28;;;;;;;;;3.33;3.33;;;;;22.39;35.10;101843.05;110235;1250;22872;-38
2023/09/15 11:00:54;;;;;;;;;2.00;2.00;;;;;22.62;35.10;101840.69;110260;1251;19906;-38
2023/09/15 11:03:20;;;;;;;;;2.00;2.00;;;;;22.81;35.17;101845.52;110197;1251;20462;-37
2023/09/15 11:05:47;;;;;;;;;2.00;2.00;;;;;22.75;35.57;101840.67;110129;1250;19667;-37
2023/09/15 11:08:12;;;;;;;;;4.00;4.00;;;;;22.77;35.88;101840.38;110266;1249;19788;-38
2023/09/15 11:10:40;;;;;;;;;4.00;4.00;;;;;22.71;36.06;101840.41;110214;1251;20969;-37